createdAt,value
2022-11-23T00:00:43.551Z,-0.30
2022-11-23T00:03:15.207Z,-0.30
2022-11-23T00:05:43.098Z,-0.30
2022-11-23T00:08:12.139Z,-0.30
2022-11-23T00:10:39.841Z,-0.30
2022-11-23T00:13:07.550Z,-0.20
2022-11-23T00:15:35.518Z,-0.20
2022-11-23T00:18:03.552Z,-0.20
2022-11-23T00:20:31.260Z,-0.20
2022-11-23T00:22:59.026Z,-0.20
2022-11-23T00:25:28.044Z,-0.20
2022-11-23T00:27:55.743Z,-0.20
2022-11-23T00:30:23.439Z,-0.20
2022-11-23T00:32:51.148Z,-0.30
2022-11-23T00:35:18.824Z,-0.30
2022-11-23T00:37:46.515Z,-0.40
2022-11-23T00:40:14.242Z,-0.40
2022-11-23T00:42:43.263Z,-0.30
2022-11-23T00:45:11.758Z,-0.20
2022-11-23T00:47:39.516Z,-0.20
2022-11-23T00:50:07.783Z,-0.20
2022-11-23T00:52:35.478Z,-0.20
2022-11-23T00:55:03.146Z,-0.20
2022-11-23T00:57:30.853Z,-0.30
2022-11-23T00:59:59.873Z,-0.30
2022-11-23T01:02:27.963Z,-0.30
2022-11-23T01:04:55.658Z,-0.30
2022-11-23T01:07:23.385Z,-0.30
2022-11-23T01:09:51.069Z,-0.30
2022-11-23T01:12:18.782Z,-0.30
2022-11-23T01:14:46.495Z,-0.20
2022-11-23T01:17:15.536Z,-0.20
2022-11-23T01:19:43.235Z,-0.20
2022-11-23T01:22:10.973Z,-0.10
2022-11-23T01:24:38.679Z,-0.20
2022-11-23T01:27:06.384Z,-0.20
2022-11-23T01:29:34.642Z,-0.10
2022-11-23T01:32:02.590Z,0.00
2022-11-23T01:34:31.608Z,0.20
2022-11-23T01:36:59.476Z,0.30
2022-11-23T01:39:27.204Z,0.40
2022-11-23T01:41:54.901Z,0.50
2022-11-23T01:44:25.643Z,0.50
2022-11-23T01:46:53.326Z,0.50
2022-11-23T01:49:21.715Z,0.50
2022-11-23T01:51:53.194Z,0.40
2022-11-23T01:54:25.727Z,0.40
2022-11-23T01:56:56.488Z,0.40
2022-11-23T01:59:26.404Z,0.40
2022-11-23T02:01:54.182Z,0.50
2022-11-23T02:04:25.133Z,0.70
2022-11-23T02:06:55.664Z,0.80
2022-11-23T02:09:24.070Z,0.70
2022-11-23T02:11:52.880Z,0.60
2022-11-23T02:14:23.577Z,0.60
2022-11-23T02:16:51.645Z,0.60
2022-11-23T02:19:32.701Z,0.70
2022-11-23T02:22:02.119Z,0.70
2022-11-23T02:24:35.151Z,0.70
2022-11-23T02:27:06.903Z,0.70
2022-11-23T02:29:35.654Z,0.70
2022-11-23T02:32:03.382Z,0.70
2022-11-23T02:34:31.095Z,0.60
2022-11-23T02:36:59.351Z,0.50
2022-11-23T02:39:32.493Z,0.50
2022-11-23T02:42:01.216Z,0.50
2022-11-23T02:44:37.579Z,0.50
2022-11-23T02:47:06.082Z,0.40
2022-11-23T02:49:34.148Z,0.30
2022-11-23T02:52:02.603Z,0.20
2022-11-23T02:54:30.342Z,0.30
2022-11-23T02:56:58.369Z,0.20
2022-11-23T02:59:26.184Z,0.10
2022-11-23T03:01:55.238Z,0.20
2022-11-23T03:04:27.649Z,0.10
2022-11-23T03:06:56.145Z,0.00
2022-11-23T03:09:26.064Z,-0.10
2022-11-23T03:11:53.994Z,-0.10
2022-11-23T03:14:21.940Z,0.00
2022-11-23T03:16:49.798Z,0.00
2022-11-23T03:19:18.875Z,-0.10
2022-11-23T03:21:46.576Z,-0.10
2022-11-23T03:24:14.294Z,-0.30
2022-11-23T03:26:42.004Z,-0.30
2022-11-23T03:29:09.834Z,-0.30
2022-11-23T03:31:37.558Z,-0.30
2022-11-23T03:34:05.288Z,-0.30
2022-11-23T03:36:34.319Z,-0.30
2022-11-23T03:39:02.155Z,-0.40
2022-11-23T03:41:29.847Z,-0.50
2022-11-23T03:43:57.555Z,-0.50
2022-11-23T03:46:25.416Z,-0.50
2022-11-23T03:48:53.130Z,-0.40
2022-11-23T03:51:20.868Z,-0.40
2022-11-23T03:53:49.911Z,-0.50
2022-11-23T03:56:17.619Z,-0.40
2022-11-23T03:58:45.322Z,-0.40
2022-11-23T04:01:13.184Z,-0.50
2022-11-23T04:03:40.976Z,-0.60
2022-11-23T04:06:08.696Z,-0.70
2022-11-23T04:08:36.525Z,-0.70
2022-11-23T04:11:05.602Z,-0.80
2022-11-23T04:13:33.326Z,-0.90
2022-11-23T04:16:01.047Z,-0.90
2022-11-23T04:18:28.766Z,-0.90
2022-11-23T04:20:56.496Z,-0.90
2022-11-23T04:23:24.220Z,-0.90
2022-11-23T04:25:51.951Z,-0.80
2022-11-23T04:28:21.022Z,-0.80
2022-11-23T04:30:48.864Z,-0.70
2022-11-23T04:33:16.742Z,-0.60
2022-11-23T04:35:44.471Z,-0.50
2022-11-23T04:38:12.287Z,-0.40
2022-11-23T04:40:39.969Z,-0.40
2022-11-23T04:43:09.542Z,-0.40
2022-11-23T04:45:41.024Z,-0.40
2022-11-23T04:48:09.046Z,-0.50
2022-11-23T04:50:40.431Z,-0.70
2022-11-23T04:53:08.787Z,-0.70
2022-11-23T04:55:36.692Z,-0.70
2022-11-23T04:58:04.508Z,-0.70
2022-11-23T05:00:32.334Z,-0.60
2022-11-23T05:03:02.336Z,-0.50
2022-11-23T05:05:30.222Z,-0.30
2022-11-23T05:07:58.877Z,-0.30
2022-11-23T05:10:26.705Z,-0.30
2022-11-23T05:12:54.397Z,-0.20
2022-11-23T05:15:22.133Z,-0.20
2022-11-23T05:17:49.921Z,-0.10
2022-11-23T05:20:19.315Z,-0.10
2022-11-23T05:22:47.031Z,-0.10
2022-11-23T05:25:14.730Z,-0.10
2022-11-23T05:27:42.439Z,-0.20
2022-11-23T05:30:11.072Z,-0.30
2022-11-23T05:32:38.758Z,-0.30
2022-11-23T05:35:07.524Z,-0.30
2022-11-23T05:37:36.728Z,-0.30
2022-11-23T05:40:05.466Z,-0.40
2022-11-23T05:42:33.591Z,-0.40
2022-11-23T05:45:01.320Z,-0.30
2022-11-23T05:47:29.014Z,-0.30
2022-11-23T05:49:56.965Z,-0.30
2022-11-23T05:52:25.998Z,-0.30
2022-11-23T05:54:55.166Z,-0.40
2022-11-23T05:57:22.990Z,-0.40
2022-11-23T05:59:50.903Z,-0.50
2022-11-23T06:02:18.630Z,-0.60
2022-11-23T06:04:46.356Z,-0.50
2022-11-23T06:07:14.229Z,-0.50
2022-11-23T06:09:41.975Z,-0.60
2022-11-23T06:12:11.041Z,-0.60
2022-11-23T06:14:38.833Z,-0.70
2022-11-23T06:17:06.643Z,-0.60
2022-11-23T06:19:34.999Z,-0.60
2022-11-23T06:22:03.114Z,-0.60
2022-11-23T06:24:30.851Z,-0.70
2022-11-23T06:26:58.527Z,-0.80
2022-11-23T06:29:27.549Z,-0.90
2022-11-23T06:31:55.275Z,-0.90
2022-11-23T06:34:23.016Z,-0.90
2022-11-23T06:36:50.734Z,-0.80
2022-11-23T06:39:18.662Z,-0.70
2022-11-23T06:41:46.367Z,-0.60
2022-11-23T06:44:14.139Z,-0.50
2022-11-23T06:46:43.184Z,-0.40
2022-11-23T06:49:10.929Z,-0.30
2022-11-23T06:51:38.710Z,-0.30
2022-11-23T06:54:06.484Z,-0.30
2022-11-23T06:56:34.182Z,-0.40
2022-11-23T06:59:01.871Z,-0.50
2022-11-23T07:01:29.604Z,-0.50
2022-11-23T07:03:58.708Z,-0.50
2022-11-23T07:06:26.547Z,-0.50
2022-11-23T07:08:55.720Z,-0.40
2022-11-23T07:11:23.422Z,-0.40
2022-11-23T07:13:51.131Z,-0.50
2022-11-23T07:16:18.851Z,-0.60
2022-11-23T07:18:46.587Z,-0.60
2022-11-23T07:21:15.590Z,-0.70
2022-11-23T07:23:43.502Z,-0.70
2022-11-23T07:26:11.248Z,-0.80
2022-11-23T07:28:38.982Z,-0.70
2022-11-23T07:31:07.126Z,-0.70
2022-11-23T07:33:34.984Z,-0.60
2022-11-23T07:36:03.402Z,-0.60
2022-11-23T07:38:32.447Z,-0.70
2022-11-23T07:41:01.715Z,-0.70
2022-11-23T07:43:29.414Z,-0.70
2022-11-23T07:45:57.483Z,-0.70
2022-11-23T07:48:25.484Z,-0.60
2022-11-23T07:50:54.009Z,-0.50
2022-11-23T07:53:23.047Z,-0.50
2022-11-23T07:55:56.720Z,-0.40
2022-11-23T07:58:24.546Z,-0.30
2022-11-23T08:00:52.287Z,-0.20
2022-11-23T08:03:27.751Z,-0.10
2022-11-23T08:05:56.435Z,0.10
2022-11-23T08:08:24.177Z,0.30
2022-11-23T08:10:54.458Z,0.40
2022-11-23T08:13:23.246Z,0.50
2022-11-23T08:15:55.441Z,0.50
2022-11-23T08:18:23.949Z,0.60
2022-11-23T08:20:51.772Z,0.80
2022-11-23T08:23:19.725Z,1.00
2022-11-23T08:25:47.889Z,1.10
2022-11-23T08:28:16.922Z,1.20
2022-11-23T08:30:45.072Z,1.40
2022-11-23T08:33:14.422Z,1.50
2022-11-23T08:35:43.057Z,1.70
2022-11-23T08:38:11.887Z,1.70
2022-11-23T08:40:40.023Z,1.70
2022-11-23T08:43:07.835Z,1.80
2022-11-23T08:45:36.911Z,1.80
2022-11-23T08:48:05.472Z,2.00
2022-11-23T08:50:34.420Z,2.10
2022-11-23T08:53:02.384Z,2.30
2022-11-23T08:55:30.371Z,2.50
2022-11-23T08:57:59.162Z,2.60
2022-11-23T09:00:27.985Z,2.80
2022-11-23T09:02:58.924Z,3.10
2022-11-23T09:05:26.811Z,3.40
2022-11-23T09:07:54.528Z,3.60
2022-11-23T09:10:22.518Z,3.80
2022-11-23T09:12:50.472Z,4.00
2022-11-23T09:15:18.612Z,4.10
2022-11-23T09:17:46.461Z,4.10
2022-11-23T09:20:15.824Z,4.00
2022-11-23T09:22:43.794Z,3.90
2022-11-23T09:25:12.151Z,3.80
2022-11-23T09:27:39.856Z,3.90
2022-11-23T09:30:08.782Z,3.90
2022-11-23T09:32:36.508Z,4.00
2022-11-23T09:35:04.717Z,4.00
2022-11-23T09:37:33.739Z,4.00
2022-11-23T09:40:01.584Z,4.10
2022-11-23T09:42:45.886Z,4.20
2022-11-23T09:45:23.684Z,4.30
2022-11-23T09:48:06.624Z,4.50
2022-11-23T09:50:43.445Z,4.80
2022-11-23T09:53:17.050Z,5.00
2022-11-23T09:55:47.292Z,5.30
2022-11-23T09:58:17.079Z,5.60
2022-11-23T10:00:48.423Z,5.80
2022-11-23T10:03:18.872Z,6.60
2022-11-23T10:05:56.021Z,8.40
2022-11-23T10:08:35.639Z,10.90
2022-11-23T10:11:24.636Z,13.00
2022-11-23T10:14:00.915Z,14.00
2022-11-23T10:16:37.607Z,15.00
2022-11-23T10:19:13.591Z,14.90
2022-11-23T10:21:52.543Z,14.40
2022-11-23T10:24:28.481Z,13.50
2022-11-23T10:26:56.202Z,12.30
2022-11-23T10:29:30.462Z,11.30
2022-11-23T10:31:59.049Z,10.50
2022-11-23T10:34:49.591Z,9.70
2022-11-23T10:37:19.014Z,9.10
2022-11-23T10:39:48.036Z,8.70
2022-11-23T10:42:22.262Z,8.40
2022-11-23T10:44:52.298Z,8.40
2022-11-23T10:47:40.942Z,8.40
2022-11-23T10:50:29.880Z,8.40
2022-11-23T10:52:59.024Z,8.60
2022-11-23T10:55:31.096Z,8.50
2022-11-23T10:57:59.558Z,8.50
2022-11-23T11:00:31.186Z,8.50
2022-11-23T11:03:00.282Z,8.50
2022-11-23T11:06:08.036Z,8.50
2022-11-23T11:08:22.551Z,8.70
2022-11-23T11:10:59.210Z,8.70
2022-11-23T11:13:30.527Z,8.60
2022-11-23T11:16:01.231Z,8.70
2022-11-23T11:18:32.072Z,8.70
2022-11-23T11:21:03.618Z,8.70
2022-11-23T11:23:32.451Z,8.70
2022-11-23T11:26:07.852Z,8.70
2022-11-23T11:28:39.137Z,8.70
2022-11-23T11:31:31.149Z,8.70
2022-11-23T11:34:05.513Z,8.80
2022-11-23T11:36:39.052Z,8.90
2022-11-23T11:39:18.638Z,9.10
2022-11-23T11:41:50.019Z,9.20
2022-11-23T11:44:22.511Z,9.20
2022-11-23T11:46:55.372Z,9.20
2022-11-23T11:49:27.197Z,9.30
2022-11-23T11:51:59.330Z,9.50
2022-11-23T11:54:32.498Z,9.50
2022-11-23T11:57:08.104Z,9.60
2022-11-23T11:59:42.956Z,9.70
2022-11-23T12:02:20.933Z,9.70
2022-11-23T12:05:00.938Z,9.60
2022-11-23T12:07:32.554Z,9.70
2022-11-23T12:10:07.710Z,9.80
2022-11-23T12:12:37.757Z,10.00
2022-11-23T12:15:20.495Z,10.10
2022-11-23T12:18:16.892Z,10.10
2022-11-23T12:20:53.144Z,10.10
2022-11-23T12:23:32.843Z,10.20
2022-11-23T12:26:13.569Z,10.10
2022-11-23T12:29:02.604Z,10.10
2022-11-23T12:31:40.641Z,9.90
2022-11-23T12:34:16.913Z,9.80
2022-11-23T12:37:09.121Z,9.80
2022-11-23T12:40:01.331Z,9.80
2022-11-23T12:42:39.483Z,9.70
2022-11-23T12:45:27.404Z,9.50
2022-11-23T12:48:03.926Z,9.30
2022-11-23T12:50:38.687Z,9.20
2022-11-23T12:53:26.501Z,9.30
2022-11-23T12:56:04.272Z,9.30
2022-11-23T12:58:34.671Z,9.40
2022-11-23T13:01:08.147Z,9.40
2022-11-23T13:04:08.762Z,9.20
2022-11-23T13:07:27.402Z,9.00
2022-11-23T13:10:06.588Z,8.80
2022-11-23T13:12:57.112Z,8.70
2022-11-23T13:15:41.854Z,8.70
2022-11-23T13:18:20.518Z,8.60
2022-11-23T13:21:03.933Z,8.50
2022-11-23T13:23:36.290Z,8.50
2022-11-23T13:26:18.673Z,8.60
2022-11-23T13:28:48.639Z,8.50
2022-11-23T13:31:31.145Z,8.60
2022-11-23T13:34:02.304Z,8.60
2022-11-23T13:37:11.224Z,8.80
2022-11-23T13:40:00.333Z,8.80
2022-11-23T13:42:30.824Z,8.80
2022-11-23T13:45:31.063Z,8.70
2022-11-23T13:48:41.299Z,8.30
2022-11-23T13:51:05.939Z,8.10
2022-11-23T13:53:35.997Z,7.90
2022-11-23T13:56:23.750Z,7.80
2022-11-23T13:58:53.946Z,7.60
2022-11-23T14:02:03.098Z,7.50
2022-11-23T14:04:32.615Z,7.50
2022-11-23T14:07:06.816Z,7.50
2022-11-23T14:09:37.551Z,7.60
2022-11-23T14:12:15.420Z,7.40
2022-11-23T14:14:50.793Z,7.30
2022-11-23T14:17:54.823Z,7.40
2022-11-23T14:20:52.975Z,7.30
2022-11-23T14:23:43.279Z,7.40
2022-11-23T14:26:22.441Z,7.30
2022-11-23T14:29:11.043Z,7.20
2022-11-23T14:31:47.302Z,7.00
2022-11-23T14:34:25.039Z,6.80
2022-11-23T14:36:59.039Z,6.60
2022-11-23T14:39:49.484Z,6.40
2022-11-23T14:42:20.770Z,6.30
2022-11-23T14:44:49.400Z,6.10
2022-11-23T14:47:26.759Z,6.00
2022-11-23T14:49:54.538Z,5.80
2022-11-23T14:52:24.535Z,5.70
2022-11-23T14:54:55.773Z,5.40
2022-11-23T14:57:27.431Z,5.30
2022-11-23T14:59:58.889Z,5.20
2022-11-23T15:02:34.990Z,5.10
2022-11-23T15:05:08.807Z,5.00
2022-11-23T15:07:45.825Z,4.90
2022-11-23T15:10:29.529Z,4.90
2022-11-23T15:12:57.297Z,4.80
2022-11-23T15:15:27.345Z,4.80
2022-11-23T15:17:56.245Z,4.60
2022-11-23T15:20:27.894Z,4.60
2022-11-23T15:22:55.779Z,4.60
2022-11-23T15:25:25.055Z,4.40
2022-11-23T15:27:52.816Z,4.30
2022-11-23T15:30:22.053Z,4.10
2022-11-23T15:32:57.685Z,4.00
2022-11-23T15:35:30.890Z,4.00
2022-11-23T15:38:00.699Z,4.00
2022-11-23T15:40:33.477Z,4.00
2022-11-23T15:43:01.422Z,3.90
2022-11-23T15:45:41.226Z,3.70
2022-11-23T15:48:27.728Z,3.60
2022-11-23T15:50:57.447Z,3.60
2022-11-23T15:53:27.642Z,3.40
2022-11-23T15:56:01.236Z,3.30
2022-11-23T15:58:29.659Z,3.30
2022-11-23T16:01:06.450Z,3.20
2022-11-23T16:03:41.078Z,3.20
2022-11-23T16:06:26.591Z,3.10
2022-11-23T16:08:54.334Z,2.90
2022-11-23T16:11:32.754Z,2.80
2022-11-23T16:14:18.201Z,2.70
2022-11-23T16:16:47.968Z,2.60
2022-11-23T16:19:28.793Z,2.50
2022-11-23T16:22:02.487Z,2.40
2022-11-23T16:24:32.541Z,2.50
2022-11-23T16:27:02.611Z,2.40
2022-11-23T16:29:35.070Z,2.30
2022-11-23T16:32:06.945Z,2.20
2022-11-23T16:34:35.198Z,2.10
2022-11-23T16:37:04.595Z,2.10
2022-11-23T16:39:32.356Z,2.00
2022-11-23T16:42:00.104Z,1.90
2022-11-23T16:44:30.950Z,1.80
2022-11-23T16:47:31.100Z,1.80
2022-11-23T16:49:59.394Z,1.70
2022-11-23T16:52:27.311Z,1.60
2022-11-23T16:54:55.063Z,1.70
2022-11-23T16:57:30.828Z,1.80
2022-11-23T17:00:03.700Z,1.80
2022-11-23T17:02:31.473Z,1.80
2022-11-23T17:04:59.353Z,1.80
2022-11-23T17:07:27.153Z,1.80
2022-11-23T17:09:56.396Z,1.90
2022-11-23T17:12:24.236Z,2.00
2022-11-23T17:14:52.229Z,2.00
2022-11-23T17:17:23.185Z,1.90
2022-11-23T17:19:51.629Z,1.70
2022-11-23T17:22:20.809Z,1.60
2022-11-23T17:24:49.744Z,1.60
2022-11-23T17:27:20.336Z,1.50
2022-11-23T17:29:48.642Z,1.50
2022-11-23T17:32:16.501Z,1.50
2022-11-23T17:34:45.908Z,1.50
2022-11-23T17:37:19.836Z,1.60
2022-11-23T17:39:47.953Z,1.60
2022-11-23T17:42:16.484Z,1.60
2022-11-23T17:44:44.281Z,1.60
2022-11-23T17:47:20.476Z,1.70
2022-11-23T17:49:49.553Z,1.70
2022-11-23T17:52:17.308Z,1.70
2022-11-23T17:54:45.012Z,1.60
2022-11-23T17:57:15.405Z,1.60
2022-11-23T17:59:43.728Z,1.70
2022-11-23T18:02:11.909Z,1.50
2022-11-23T18:04:39.658Z,1.50
2022-11-23T18:07:11.333Z,1.40
2022-11-23T18:09:39.285Z,1.40
2022-11-23T18:12:07.499Z,1.40
2022-11-23T18:14:35.586Z,1.40
2022-11-23T18:17:03.309Z,1.30
2022-11-23T18:19:31.365Z,1.20
2022-11-23T18:21:59.422Z,1.10
2022-11-23T18:24:28.471Z,1.00
2022-11-23T18:26:56.479Z,1.00
2022-11-23T18:29:24.196Z,1.00
2022-11-23T18:31:51.974Z,1.10
2022-11-23T18:34:19.761Z,1.10
2022-11-23T18:36:47.552Z,1.20
2022-11-23T18:39:15.306Z,1.20
2022-11-23T18:41:44.504Z,1.20
2022-11-23T18:44:12.256Z,1.20
2022-11-23T18:46:41.240Z,1.10
2022-11-23T18:49:09.227Z,1.20
2022-11-23T18:51:36.983Z,1.10
2022-11-23T18:54:05.012Z,1.10
2022-11-23T18:56:32.857Z,1.10
2022-11-23T18:59:02.762Z,1.10
2022-11-23T19:01:30.536Z,1.10
2022-11-23T19:03:58.516Z,1.10
2022-11-23T19:06:26.410Z,1.00
2022-11-23T19:08:57.349Z,1.00
2022-11-23T19:11:27.368Z,1.00
2022-11-23T19:13:56.573Z,1.10
2022-11-23T19:16:27.457Z,1.10
2022-11-23T19:18:55.807Z,1.00
2022-11-23T19:21:26.228Z,1.00
2022-11-23T19:23:55.295Z,1.00
2022-11-23T19:26:23.126Z,1.00
2022-11-23T19:28:52.253Z,0.90
2022-11-23T19:31:22.197Z,0.70
2022-11-23T19:33:52.532Z,0.60
2022-11-23T19:36:22.638Z,0.40
2022-11-23T19:38:50.832Z,0.40
2022-11-23T19:41:23.037Z,0.40
2022-11-23T19:43:54.953Z,0.30
2022-11-23T19:46:23.180Z,0.40
2022-11-23T19:48:52.414Z,0.40
2022-11-23T19:51:21.157Z,0.40
2022-11-23T19:53:49.408Z,0.30
2022-11-23T19:56:19.231Z,0.40
2022-11-23T19:58:47.690Z,0.40
2022-11-23T20:01:16.882Z,0.40
2022-11-23T20:03:46.125Z,0.40
2022-11-23T20:06:17.253Z,0.30
2022-11-23T20:08:46.003Z,0.20
2022-11-23T20:11:15.475Z,0.20
2022-11-23T20:13:44.161Z,0.10
2022-11-23T20:16:14.249Z,0.20
2022-11-23T20:18:42.567Z,0.10
2022-11-23T20:21:12.805Z,0.10
2022-11-23T20:23:42.605Z,0.00
2022-11-23T20:26:14.319Z,0.00
2022-11-23T20:28:42.091Z,0.00
2022-11-23T20:31:19.816Z,0.00
2022-11-23T20:33:50.370Z,0.00
2022-11-23T20:36:20.136Z,0.00
2022-11-23T20:38:49.686Z,0.10
2022-11-23T20:41:19.511Z,0.10
2022-11-23T20:43:49.063Z,0.10
2022-11-23T20:46:32.091Z,0.20
2022-11-23T20:49:05.142Z,0.20
2022-11-23T20:51:33.111Z,0.20
2022-11-23T20:54:02.451Z,0.10
2022-11-23T20:56:30.296Z,0.20
2022-11-23T20:59:00.701Z,0.20
2022-11-23T21:01:29.484Z,0.20
2022-11-23T21:03:59.281Z,0.10
2022-11-23T21:06:28.415Z,0.20
2022-11-23T21:08:56.915Z,0.10
2022-11-23T21:11:45.165Z,0.10
2022-11-23T21:14:17.778Z,0.10
2022-11-23T21:16:52.719Z,0.10
2022-11-23T21:19:21.946Z,0.20
2022-11-23T21:21:50.002Z,0.30
2022-11-23T21:24:17.791Z,0.30
2022-11-23T21:26:47.178Z,0.30
2022-11-23T21:29:16.240Z,0.40
2022-11-23T21:31:45.717Z,0.50
2022-11-23T21:34:18.419Z,0.60
2022-11-23T21:36:46.179Z,0.60
2022-11-23T21:39:14.481Z,0.60
2022-11-23T21:41:42.210Z,0.60
2022-11-23T21:44:12.024Z,0.50
2022-11-23T21:46:41.280Z,0.40
2022-11-23T21:49:09.703Z,0.40
2022-11-23T21:51:39.296Z,0.50
2022-11-23T21:54:09.851Z,0.70
2022-11-23T21:56:37.651Z,0.80
2022-11-23T21:59:05.669Z,0.70
2022-11-23T22:01:37.218Z,0.70
2022-11-23T22:04:08.874Z,0.60
2022-11-23T22:06:37.223Z,0.60
2022-11-23T22:09:07.313Z,0.60
2022-11-23T22:11:36.943Z,0.60
2022-11-23T22:14:07.236Z,0.60
2022-11-23T22:16:38.018Z,0.60
2022-11-23T22:19:06.702Z,0.70
2022-11-23T22:21:36.052Z,0.80
2022-11-23T22:24:04.576Z,0.90
2022-11-23T22:26:32.759Z,1.00
2022-11-23T22:29:02.453Z,0.90
2022-11-23T22:31:33.060Z,0.80
2022-11-23T22:34:03.016Z,0.80
2022-11-23T22:36:31.339Z,0.70
2022-11-23T22:39:02.018Z,0.60
2022-11-23T22:41:30.880Z,0.50
2022-11-23T22:43:59.682Z,0.40
2022-11-23T22:46:27.910Z,0.40
2022-11-23T22:48:59.217Z,0.50
2022-11-23T22:51:29.734Z,0.50
2022-11-23T22:53:59.001Z,0.40
2022-11-23T22:56:28.725Z,0.40
2022-11-23T22:58:56.723Z,0.40
2022-11-23T23:01:26.485Z,0.40
2022-11-23T23:03:55.540Z,0.40
2022-11-23T23:06:25.523Z,0.40
2022-11-23T23:08:56.846Z,0.40
2022-11-23T23:11:25.505Z,0.30
2022-11-23T23:13:53.642Z,0.30
2022-11-23T23:16:21.751Z,0.40
2022-11-23T23:18:49.749Z,0.40
2022-11-23T23:21:19.639Z,0.40
2022-11-23T23:23:48.913Z,0.40
2022-11-23T23:26:19.703Z,0.40
2022-11-23T23:28:47.962Z,0.30
2022-11-23T23:31:17.977Z,0.40
2022-11-23T23:33:46.607Z,0.60
2022-11-23T23:36:16.640Z,0.60
2022-11-23T23:38:44.654Z,0.60
2022-11-23T23:41:13.211Z,0.70
2022-11-23T23:43:43.026Z,0.60
2022-11-23T23:46:13.651Z,0.60
2022-11-23T23:48:42.436Z,0.60
2022-11-23T23:51:12.040Z,0.60
2022-11-23T23:53:40.995Z,0.50
2022-11-23T23:56:13.464Z,0.50
2022-11-23T23:58:42.599Z,0.40
